Time;durP1;ratioP1;P1;durP2;ratioP2;P2;SDS_P1;SDS_P2;PMS_P1;PMS_P2;Temp;Humidity;BMP_temperature;BMP_pressure;BME280_temperature;BME280_humidity;BME280_pressure;Samples;Min_cycle;Max_cycle;Signal;HPM_P1;HPM_P2
2021/01/22 00:02:37;;;;;;;;;;;7.80;77.70;;;;;;4931339;28;117770;-91
2021/01/22 00:08:26;;;;;;;;;;;7.80;77.60;;;;;;4964497;28;116801;-91
2021/01/22 00:10:52;;;;;;;;;;;7.80;77.50;;;;;;4931890;28;119922;-91
2021/01/22 00:13:18;;;;;;;;;;;7.80;77.30;;;;;;4931714;28;118911;-91
2021/01/22 00:15:43;;;;;;;;;;;7.80;77.40;;;;;;4932519;28;117502;-91
2021/01/22 00:18:09;;;;;;;;;;;7.80;77.30;;;;;;4932454;28;117344;-90
2021/01/22 00:20:34;;;;;;;;;;;7.80;77.20;;;;;;4931694;28;120806;-91
2021/01/22 00:23:02;;;;;;;;;;;7.80;77.40;;;;;;4931527;28;120486;-90
2021/01/22 00:25:27;;;;;;;;;;;7.80;77.20;;;;;;4932206;28;117447;-91
2021/01/22 00:27:53;;;;;;;;;;;7.80;77.30;;;;;;4926236;28;117304;-91
2021/01/22 00:30:18;;;;;;;;;;;7.80;77.20;;;;;;4930344;28;120527;-91
2021/01/22 00:32:44;;;;;;;;;;;7.80;77.40;;;;;;4931362;28;119317;-90
2021/01/22 00:35:10;;;;;;;;;;;7.80;77.20;;;;;;4931891;28;117531;-91
2021/01/22 00:37:35;;;;;;;;;;;7.90;77.30;;;;;;4932204;28;117493;-91
2021/01/22 00:40:01;;;;;;;;;;;7.90;77.20;;;;;;4931046;28;121172;-90
2021/01/22 00:42:26;;;;;;;;;;;7.90;77.30;;;;;;4931162;28;119361;-90
2021/01/22 00:44:52;;;;;;;;;;;7.90;77.20;;;;;;4948410;28;117406;-90
2021/01/22 00:47:17;;;;;;;;;;;7.90;77.20;;;;;;4932290;28;117752;-91
2021/01/22 00:49:43;;;;;;;;;;;7.90;77.20;;;;;;4931031;28;119852;-90
2021/01/22 00:52:08;;;;;;;;;;;7.90;77.20;;;;;;4931007;28;118913;-91
2021/01/22 00:54:34;;;;;;;;;;;7.90;77.20;;;;;;4931994;28;117291;-91
2021/01/22 00:56:59;;;;;;;;;;;7.90;77.20;;;;;;4932311;28;117763;-90
2021/01/22 00:59:25;;;;;;;;;;;7.90;77.40;;;;;;4930672;28;120058;-91
2021/01/22 01:01:50;;;;;;;;;;;7.90;77.20;;;;;;4930880;28;119448;-90
2021/01/22 01:04:16;;;;;;;;;;;7.90;77.20;;;;;;4931466;28;117263;-90
2021/01/22 01:06:41;;;;;;;;;;;7.90;77.60;;;;;;4932214;28;117294;-91
2021/01/22 01:09:07;;;;;;;;;;;7.90;77.20;;;;;;4930845;28;120255;-90
2021/01/22 01:11:33;;;;;;;;;;;7.90;77.10;;;;;;4930809;28;120700;-91
2021/01/22 01:13:58;;;;;;;;;;;7.90;77.40;;;;;;4931535;28;117309;-91
2021/01/22 01:16:24;;;;;;;;;;;7.90;77.10;;;;;;4931863;28;117252;-91
2021/01/22 01:18:49;;;;;;;;;;;7.90;77.20;;;;;;4930373;28;120174;-91
2021/01/22 01:21:15;;;;;;;;;;;7.90;77.20;;;;;;4930768;28;119411;-91
2021/01/22 01:23:40;;;;;;;;;;;7.90;77.20;;;;;;4931355;28;117796;-91
2021/01/22 01:26:06;;;;;;;;;;;7.90;77.40;;;;;;4931888;28;116848;-91
2021/01/22 01:28:31;;;;;;;;;;;7.90;77.50;;;;;;4930428;28;120160;-91
2021/01/22 01:30:57;;;;;;;;;;;7.90;77.50;;;;;;4947311;28;118134;-91
2021/01/22 01:33:22;;;;;;;;;;;7.90;77.70;;;;;;4931179;28;117375;-91
2021/01/22 01:35:51;;;;;;;;;;;7.90;77.30;;;;;;4931851;28;116920;-91
2021/01/22 01:38:17;;;;;;;;;;;7.90;77.50;;;;;;4930584;28;120904;-90
2021/01/22 01:40:43;;;;;;;;;;;7.90;77.50;;;;;;4930738;28;119241;-91
2021/01/22 01:43:08;;;;;;;;;;;7.90;77.80;;;;;;4931363;28;116765;-91
2021/01/22 01:45:39;;;;;;;;;;;7.90;77.70;;;;;;4931807;28;117518;-90
2021/01/22 01:48:07;;;;;;;;;;;7.90;77.40;;;;;;4930017;28;120227;-90
2021/01/22 01:50:32;;;;;;;;;;;7.90;77.40;;;;;;4930492;28;118961;-90
2021/01/22 01:52:59;;;;;;;;;;;7.90;77.50;;;;;;4931046;28;116904;-90
2021/01/22 01:55:25;;;;;;;;;;;7.90;77.30;;;;;;4931737;28;116945;-91
2021/01/22 01:57:50;;;;;;;;;;;7.90;77.50;;;;;;4930087;28;120147;-91
2021/01/22 02:00:17;;;;;;;;;;;7.90;77.40;;;;;;4929740;28;120187;-90
2021/01/22 02:02:43;;;;;;;;;;;7.90;77.30;;;;;;4931013;28;116700;-90
2021/01/22 02:05:08;;;;;;;;;;;7.90;77.20;;;;;;4931302;28;117504;-91
2021/01/22 02:07:34;;;;;;;;;;;7.90;77.20;;;;;;4930138;28;120362;-90
2021/01/22 02:09:59;;;;;;;;;;;7.90;77.20;;;;;;4929878;28;119191;-90
2021/01/22 02:12:25;;;;;;;;;;;7.90;77.40;;;;;;4930778;28;117281;-90
2021/01/22 02:14:50;;;;;;;;;;;7.90;77.30;;;;;;4930934;28;117766;-90
2021/01/22 02:17:16;;;;;;;;;;;7.90;77.20;;;;;;4929767;28;121568;-90
2021/01/22 02:20:03;;;;;;;;;;;7.90;77.30;;;;;;4929476;28;119284;-90
2021/01/22 02:22:29;;;;;;;;;;;7.90;77.20;;;;;;4922954;28;117494;-91
2021/01/22 02:24:55;;;;;;;;;;;7.90;77.30;;;;;;4930888;28;117498;-90
2021/01/22 02:27:20;;;;;;;;;;;8.00;77.30;;;;;;4929669;28;120081;-91
2021/01/22 02:29:46;;;;;;;;;;;7.90;77.40;;;;;;4929438;28;119359;-91
2021/01/22 02:32:11;;;;;;;;;;;7.90;77.30;;;;;;4930390;28;117508;-90
2021/01/22 02:34:37;;;;;;;;;;;7.90;77.50;;;;;;4931105;28;117465;-90
2021/01/22 02:37:04;;;;;;;;;;;7.90;77.40;;;;;;4929737;28;120031;-90
2021/01/22 02:39:31;;;;;;;;;;;7.90;77.30;;;;;;4929061;28;119038;-90
2021/01/22 02:41:57;;;;;;;;;;;7.90;77.20;;;;;;4930203;28;117463;-91
2021/01/22 02:44:22;;;;;;;;;;;7.90;77.20;;;;;;4930850;28;117319;-91
2021/01/22 02:46:48;;;;;;;;;;;7.90;77.40;;;;;;4929403;28;120123;-90
2021/01/22 02:49:13;;;;;;;;;;;7.90;77.60;;;;;;4929278;28;120387;-90
2021/01/22 02:51:39;;;;;;;;;;;7.90;77.50;;;;;;4930246;28;116816;-91
2021/01/22 02:54:04;;;;;;;;;;;7.90;77.40;;;;;;4930590;28;116981;-90
2021/01/22 02:56:49;;;;;;;;;;;7.90;77.30;;;;;;4929655;28;120250;-90
2021/01/22 02:59:21;;;;;;;;;;;7.90;77.30;;;;;;4945477;28;118782;-90
2021/01/22 03:02:05;;;;;;;;;;;7.90;78.00;;;;;;4949693;28;117394;-91
2021/01/22 03:04:31;;;;;;;;;;;7.90;77.40;;;;;;4950091;28;117275;-90
2021/01/22 03:06:56;;;;;;;;;;;7.90;77.20;;;;;;4932802;28;120142;-91
2021/01/22 03:09:22;;;;;;;;;;;7.90;77.20;;;;;;4932757;28;119254;-91
2021/01/22 03:11:49;;;;;;;;;;;7.90;77.10;;;;;;4933404;28;117190;-90
2021/01/22 03:14:14;;;;;;;;;;;8.00;77.20;;;;;;4934082;28;117555;-90
2021/01/22 03:16:40;;;;;;;;;;;8.00;77.30;;;;;;4932884;28;120024;-91
2021/01/22 03:19:06;;;;;;;;;;;7.90;77.10;;;;;;4932192;28;120476;-91
2021/01/22 03:21:31;;;;;;;;;;;8.00;77.20;;;;;;4933338;28;117534;-90
2021/01/22 03:23:57;;;;;;;;;;;8.00;77.40;;;;;;4933771;28;117448;-91
2021/01/22 03:26:22;;;;;;;;;;;8.00;77.30;;;;;;4932652;28;120078;-91
2021/01/22 03:28:48;;;;;;;;;;;8.00;77.30;;;;;;4931996;28;119568;-90
2021/01/22 03:31:13;;;;;;;;;;;8.00;77.10;;;;;;4933068;28;117406;-90
2021/01/22 03:33:39;;;;;;;;;;;8.00;77.10;;;;;;4933553;28;117529;-91
2021/01/22 03:36:05;;;;;;;;;;;8.00;77.10;;;;;;4932338;28;120129;-91
2021/01/22 03:38:30;;;;;;;;;;;8.00;77.20;;;;;;4932055;28;119490;-90
2021/01/22 03:40:56;;;;;;;;;;;8.00;77.00;;;;;;4933095;28;116625;-90
2021/01/22 03:43:21;;;;;;;;;;;8.00;77.10;;;;;;4933716;28;117928;-91
2021/01/22 03:45:47;;;;;;;;;;;8.00;77.10;;;;;;4932436;28;119701;-91
2021/01/22 03:48:12;;;;;;;;;;;8.00;77.10;;;;;;4931998;28;119277;-90
2021/01/22 03:50:38;;;;;;;;;;;8.00;77.10;;;;;;4932874;28;117223;-90
2021/01/22 03:53:03;;;;;;;;;;;8.00;77.00;;;;;;4933078;28;117833;-90
2021/01/22 03:55:29;;;;;;;;;;;8.00;77.00;;;;;;4932060;28;120127;-90
2021/01/22 03:57:54;;;;;;;;;;;8.00;77.10;;;;;;4932054;28;119339;-90
2021/01/22 04:00:20;;;;;;;;;;;8.00;77.00;;;;;;4932157;28;117528;-90
2021/01/22 04:02:45;;;;;;;;;;;8.00;77.00;;;;;;4933297;28;117806;-90
2021/01/22 04:05:12;;;;;;;;;;;8.00;77.00;;;;;;4932046;28;120016;-91
2021/01/22 04:07:38;;;;;;;;;;;8.00;77.10;;;;;;4931791;28;120597;-90
2021/01/22 04:10:04;;;;;;;;;;;8.00;77.50;;;;;;4932058;28;117485;-91
2021/01/22 04:12:29;;;;;;;;;;;8.00;76.90;;;;;;4932909;28;117329;-90
2021/01/22 04:14:56;;;;;;;;;;;8.00;76.80;;;;;;4931732;28;136663;-90
2021/01/22 04:17:22;;;;;;;;;;;8.00;76.90;;;;;;4931527;28;120324;-90
2021/01/22 04:19:47;;;;;;;;;;;8.00;77.00;;;;;;4931735;28;117405;-91
2021/01/22 04:22:13;;;;;;;;;;;8.00;76.90;;;;;;4932922;28;117856;-91
2021/01/22 04:24:38;;;;;;;;;;;8.00;76.80;;;;;;4931439;28;120215;-90
2021/01/22 04:27:04;;;;;;;;;;;8.00;76.80;;;;;;4931504;28;118698;-91
2021/01/22 04:29:30;;;;;;;;;;;8.00;76.90;;;;;;4931910;28;117441;-91
2021/01/22 04:31:55;;;;;;;;;;;8.00;76.90;;;;;;4949257;28;117509;-91
2021/01/22 04:34:20;;;;;;;;;;;8.00;77.00;;;;;;4931571;28;121229;-91
2021/01/22 04:36:46;;;;;;;;;;;8.00;76.80;;;;;;4931544;28;120316;-90
2021/01/22 04:39:11;;;;;;;;;;;8.00;76.90;;;;;;4931714;28;117757;-90
2021/01/22 04:41:37;;;;;;;;;;;8.00;76.80;;;;;;4948879;28;117487;-91
2021/01/22 04:44:03;;;;;;;;;;;8.00;76.90;;;;;;4947870;28;118385;-90
2021/01/22 04:46:35;;;;;;;;;;;8.00;76.80;;;;;;4931186;28;119056;-90
2021/01/22 04:49:00;;;;;;;;;;;8.00;76.80;;;;;;4931572;28;117511;-90
2021/01/22 04:51:26;;;;;;;;;;;8.00;76.80;;;;;;4932565;28;117481;-90
2021/01/22 04:53:52;;;;;;;;;;;8.00;76.80;;;;;;4931099;28;120103;-90
2021/01/22 04:56:17;;;;;;;;;;;8.00;76.80;;;;;;4931070;28;119078;-90
2021/01/22 04:58:45;;;;;;;;;;;8.00;76.70;;;;;;4931578;28;117780;-90
2021/01/22 05:01:10;;;;;;;;;;;8.00;76.90;;;;;;4932292;28;117306;-90
2021/01/22 05:03:36;;;;;;;;;;;8.00;76.70;;;;;;4947418;28;117484;-90
2021/01/22 05:06:01;;;;;;;;;;;8.00;76.70;;;;;;4930840;28;119300;-90
2021/01/22 05:08:27;;;;;;;;;;;8.00;76.70;;;;;;4931406;28;116931;-90
2021/01/22 05:10:52;;;;;;;;;;;8.00;76.70;;;;;;4931999;28;117910;-90
2021/01/22 05:13:18;;;;;;;;;;;8.00;76.70;;;;;;4930875;28;120253;-89
2021/01/22 05:16:03;;;;;;;;;;;8.00;76.70;;;;;;4930603;28;120555;-90
2021/01/22 05:18:32;;;;;;;;;;;8.00;76.70;;;;;;4946666;28;117323;-90
2021/01/22 05:21:04;;;;;;;;;;;8.00;76.70;;;;;;4932731;28;117414;-88
2021/01/22 05:23:31;;;;;;;;;;;8.00;76.70;;;;;;4930276;28;121306;-88
2021/01/22 05:25:58;;;;;;;;;;;8.00;76.70;;;;;;4930848;28;119278;-88
2021/01/22 05:28:43;;;;;;;;;;;8.00;76.70;;;;;;4931268;28;117480;-88
2021/01/22 05:31:09;;;;;;;;;;;8.00;76.60;;;;;;4931635;28;117887;-88
2021/01/22 05:33:34;;;;;;;;;;;8.00;76.60;;;;;;4930685;28;121311;-88
2021/01/22 05:36:21;;;;;;;;;;;8.00;76.50;;;;;;4930912;28;119569;-88
2021/01/22 05:38:46;;;;;;;;;;;8.00;76.50;;;;;;4946774;28;117650;-88
2021/01/22 05:41:12;;;;;;;;;;;8.00;76.50;;;;;;4931779;28;117270;-88
2021/01/22 05:43:37;;;;;;;;;;;8.00;76.50;;;;;;4930373;28;121004;-88
2021/01/22 05:46:04;;;;;;;;;;;8.00;76.40;;;;;;4930654;28;120326;-88
2021/01/22 05:48:29;;;;;;;;;;;8.10;76.50;;;;;;4930959;28;117353;-88
2021/01/22 05:50:55;;;;;;;;;;;8.00;76.40;;;;;;4931616;28;117886;-88
2021/01/22 05:53:21;;;;;;;;;;;8.00;76.40;;;;;;4930467;28;122212;-88
2021/01/22 05:56:05;;;;;;;;;;;8.10;76.40;;;;;;4930455;28;121090;-88
2021/01/22 05:58:30;;;;;;;;;;;8.00;76.40;;;;;;4946997;28;117703;-88
2021/01/22 06:01:06;;;;;;;;;;;8.10;76.40;;;;;;4931359;28;117894;-88
2021/01/22 06:03:31;;;;;;;;;;;8.10;76.40;;;;;;4930260;28;120477;-88
2021/01/22 06:05:57;;;;;;;;;;;8.10;76.40;;;;;;4930199;28;120083;-88
2021/01/22 06:08:22;;;;;;;;;;;8.10;76.40;;;;;;4930642;28;118018;-88
2021/01/22 06:10:48;;;;;;;;;;;8.00;76.30;;;;;;4931490;28;117557;-88
2021/01/22 06:13:13;;;;;;;;;;;8.10;76.30;;;;;;4930165;28;120304;-88
2021/01/22 06:15:39;;;;;;;;;;;8.10;76.30;;;;;;4930096;28;119162;-88
2021/01/22 06:18:04;;;;;;;;;;;8.00;76.30;;;;;;4930482;28;117622;-88
2021/01/22 06:20:30;;;;;;;;;;;8.10;76.30;;;;;;4931046;28;117794;-88
2021/01/22 06:23:06;;;;;;;;;;;8.10;76.30;;;;;;4929949;28;120978;-88
2021/01/22 06:25:32;;;;;;;;;;;8.10;76.30;;;;;;4930098;28;120218;-88
2021/01/22 06:27:58;;;;;;;;;;;8.10;76.20;;;;;;4930447;28;117354;-88
2021/01/22 06:30:24;;;;;;;;;;;8.10;76.20;;;;;;4931161;28;117884;-88
2021/01/22 06:32:50;;;;;;;;;;;8.10;76.20;;;;;;4930264;28;119953;-88
2021/01/22 06:35:15;;;;;;;;;;;8.10;76.20;;;;;;4929626;28;119586;-88
2021/01/22 06:37:41;;;;;;;;;;;8.10;76.20;;;;;;4930754;28;117579;-88
2021/01/22 06:40:06;;;;;;;;;;;8.10;76.10;;;;;;4930737;28;117875;-88
2021/01/22 06:42:32;;;;;;;;;;;8.10;76.10;;;;;;4929847;28;121272;-88
2021/01/22 06:44:58;;;;;;;;;;;8.10;76.20;;;;;;4929740;28;119884;-86
2021/01/22 06:47:23;;;;;;;;;;;8.10;76.10;;;;;;4930102;28;116769;-86
2021/01/22 06:49:49;;;;;;;;;;;8.10;76.10;;;;;;4930365;28;117853;-85
2021/01/22 06:52:14;;;;;;;;;;;8.10;76.10;;;;;;4929391;28;120757;-85
2021/01/22 06:55:13;;;;;;;;;;;8.10;76.10;;;;;;4929259;28;120292;-86
2021/01/22 06:57:38;;;;;;;;;;;8.10;76.10;;;;;;4893275;28;117510;-86
2021/01/22 07:00:24;;;;;;;;;;;8.10;76.10;;;;;;4930130;28;117495;-86
2021/01/22 07:02:49;;;;;;;;;;;8.10;76.10;;;;;;4945035;28;120335;-86
2021/01/22 07:05:33;;;;;;;;;;;8.10;76.10;;;;;;4929200;28;118665;-86
2021/01/22 07:07:58;;;;;;;;;;;8.10;76.10;;;;;;4929750;28;117362;-86
2021/01/22 07:10:43;;;;;;;;;;;8.10;76.10;;;;;;4929925;28;117749;-86
2021/01/22 07:13:28;;;;;;;;;;;8.10;76.00;;;;;;4945302;28;120492;-85
2021/01/22 07:16:00;;;;;;;;;;;8.10;76.00;;;;;;4945327;28;119657;-85
2021/01/22 07:18:26;;;;;;;;;;;8.10;76.00;;;;;;4929198;28;117667;-85
2021/01/22 07:21:11;;;;;;;;;;;8.10;76.00;;;;;;4930264;28;117622;-85
2021/01/22 07:23:37;;;;;;;;;;;8.10;76.00;;;;;;4945074;28;120160;-85
2021/01/22 07:26:02;;;;;;;;;;;8.10;76.10;;;;;;4945605;28;118843;-85
2021/01/22 07:28:28;;;;;;;;;;;8.10;76.00;;;;;;4929520;28;117388;-85
2021/01/22 07:30:53;;;;;;;;;;;8.10;76.00;;;;;;4946642;28;117411;-85
2021/01/22 07:33:34;;;;;;;;;;;8.10;76.10;;;;;;4928918;28;121433;-85
2021/01/22 07:36:03;;;;;;;;;;;8.10;76.00;;;;;;4945167;28;120373;-85
2021/01/22 07:38:28;;;;;;;;;;;8.10;76.00;;;;;;4945342;28;117344;-85
2021/01/22 07:40:55;;;;;;;;;;;8.10;76.00;;;;;;4946614;28;117316;-85
2021/01/22 07:43:21;;;;;;;;;;;8.10;76.00;;;;;;4928985;28;120779;-85
2021/01/22 07:45:46;;;;;;;;;;;8.10;76.00;;;;;;4929995;28;120705;-85
2021/01/22 07:48:12;;;;;;;;;;;8.10;76.00;;;;;;4932836;28;117549;-85
2021/01/22 07:50:37;;;;;;;;;;;8.10;76.00;;;;;;4949434;28;117561;-85
2021/01/22 07:53:03;;;;;;;;;;;8.10;76.00;;;;;;4932216;28;120327;-85
2021/01/22 07:55:28;;;;;;;;;;;8.10;76.00;;;;;;4932021;28;120375;-85
2021/01/22 07:58:04;;;;;;;;;;;8.10;76.00;;;;;;4932622;28;117573;-85
2021/01/22 08:00:38;;;;;;;;;;;8.10;76.00;;;;;;4933149;28;117607;-85
2021/01/22 08:03:04;;;;;;;;;;;8.10;76.00;;;;;;4932094;28;120180;-85
2021/01/22 08:05:30;;;;;;;;;;;8.10;76.00;;;;;;4931913;28;120079;-85
2021/01/22 08:07:55;;;;;;;;;;;8.10;76.00;;;;;;4948704;28;117363;-85
2021/01/22 08:10:24;;;;;;;;;;;8.10;76.00;;;;;;4932859;28;117493;-85
2021/01/22 08:12:54;;;;;;;;;;;8.10;76.00;;;;;;4931877;28;121436;-85
2021/01/22 08:15:19;;;;;;;;;;;8.10;76.00;;;;;;4931851;28;119315;-85
2021/01/22 08:17:45;;;;;;;;;;;8.20;76.00;;;;;;4932779;28;117745;-85
2021/01/22 08:20:11;;;;;;;;;;;8.10;76.00;;;;;;4932426;28;117710;-85
2021/01/22 08:22:36;;;;;;;;;;;8.10;76.00;;;;;;4931613;28;122047;-85
2021/01/22 08:25:02;;;;;;;;;;;8.10;76.00;;;;;;4931472;28;119316;-85
2021/01/22 08:27:28;;;;;;;;;;;8.10;76.00;;;;;;4932071;28;117400;-85
2021/01/22 08:29:53;;;;;;;;;;;8.10;76.10;;;;;;4932580;28;116899;-85
2021/01/22 08:32:19;;;;;;;;;;;8.10;76.00;;;;;;4947506;28;120173;-85
2021/01/22 08:34:44;;;;;;;;;;;8.10;76.00;;;;;;4931276;28;119394;-85
2021/01/22 08:37:10;;;;;;;;;;;8.10;76.00;;;;;;4932255;28;117733;-85
2021/01/22 08:40:14;;;;;;;;;;;8.10;76.00;;;;;;4948637;28;117534;-85
2021/01/22 08:42:39;;;;;;;;;;;8.10;76.00;;;;;;4850557;28;122130;-85
2021/01/22 08:45:05;;;;;;;;;;;8.20;76.10;;;;;;4850925;28;119380;-85
2021/01/22 08:47:31;;;;;;;;;;;8.10;76.10;;;;;;4889973;28;117565;-85
2021/01/22 08:50:00;;;;;;;;;;;8.10;76.20;;;;;;4932314;28;117723;-85
2021/01/22 08:52:26;;;;;;;;;;;8.10;76.10;;;;;;4931191;28;120191;-85
2021/01/22 08:54:57;;;;;;;;;;;8.20;76.10;;;;;;4931099;28;121086;-85
2021/01/22 08:57:23;;;;;;;;;;;8.20;76.20;;;;;;4932350;28;117478;-85
2021/01/22 08:59:49;;;;;;;;;;;8.10;76.00;;;;;;4932034;28;117729;-85
2021/01/22 09:02:15;;;;;;;;;;;8.20;76.20;;;;;;4930905;28;121514;-85
2021/01/22 09:04:40;;;;;;;;;;;8.20;76.30;;;;;;4931239;28;120840;-85
2021/01/22 09:07:15;;;;;;;;;;;8.20;76.30;;;;;;4931834;28;117604;-85
2021/01/22 09:09:42;;;;;;;;;;;8.20;76.40;;;;;;4931787;28;117944;-85
2021/01/22 09:12:07;;;;;;;;;;;8.20;76.20;;;;;;4930867;28;119705;-85
2021/01/22 09:14:49;;;;;;;;;;;8.20;76.20;;;;;;4946761;28;120585;-85
2021/01/22 09:17:21;;;;;;;;;;;8.20;76.20;;;;;;4931370;28;117612;-85
2021/01/22 09:19:59;;;;;;;;;;;8.20;76.30;;;;;;4931377;28;117857;-85
2021/01/22 09:22:26;;;;;;;;;;;8.20;76.30;;;;;;4930926;28;120152;-85
2021/01/22 09:24:51;;;;;;;;;;;8.20;76.20;;;;;;4930598;28;119703;-85
2021/01/22 09:27:18;;;;;;;;;;;8.20;76.20;;;;;;4931208;28;117486;-87
2021/01/22 09:29:43;;;;;;;;;;;8.20;76.20;;;;;;4932146;28;117414;-89
2021/01/22 09:32:09;;;;;;;;;;;8.20;76.20;;;;;;4930844;28;120188;-89
2021/01/22 09:34:37;;;;;;;;;;;8.20;76.40;;;;;;4930882;28;119424;-91
2021/01/22 09:37:03;;;;;;;;;;;8.20;76.70;;;;;;4931664;28;117543;-90
2021/01/22 09:39:31;;;;;;;;;;;8.20;76.50;;;;;;4931370;28;117570;-90
2021/01/22 09:41:57;;;;;;;;;;;8.20;76.60;;;;;;4930788;28;119665;-90
2021/01/22 09:44:22;;;;;;;;;;;8.20;76.70;;;;;;4930494;28;119342;-90
2021/01/22 09:46:48;;;;;;;;;;;8.20;76.40;;;;;;4930890;28;116922;-90
2021/01/22 09:49:14;;;;;;;;;;;8.20;76.40;;;;;;4931427;28;117357;-90
2021/01/22 09:51:39;;;;;;;;;;;8.20;76.50;;;;;;4930364;28;119967;-90
2021/01/22 09:54:05;;;;;;;;;;;8.20;76.70;;;;;;4930360;28;119322;-90
2021/01/22 09:56:30;;;;;;;;;;;8.20;76.60;;;;;;4931172;28;117467;-90
2021/01/22 09:58:56;;;;;;;;;;;8.20;76.50;;;;;;4931363;28;117628;-88
2021/01/22 10:01:22;;;;;;;;;;;8.20;76.60;;;;;;4930734;28;120092;-87
2021/01/22 10:03:47;;;;;;;;;;;8.20;76.70;;;;;;4929954;28;119096;-87
2021/01/22 10:06:16;;;;;;;;;;;8.20;76.60;;;;;;4930899;28;117607;-87
2021/01/22 10:08:41;;;;;;;;;;;8.30;76.80;;;;;;4930726;28;117438;-87
2021/01/22 10:11:07;;;;;;;;;;;8.30;77.20;;;;;;4930183;28;120976;-87
2021/01/22 10:13:32;;;;;;;;;;;8.30;77.00;;;;;;4930323;28;117422;-87
2021/01/22 10:15:58;;;;;;;;;;;8.30;76.80;;;;;;4931132;28;117589;-87
2021/01/22 10:18:23;;;;;;;;;;;8.30;76.70;;;;;;4930940;28;117761;-87
2021/01/22 10:20:49;;;;;;;;;;;8.30;76.70;;;;;;4946710;28;117414;-87
2021/01/22 10:23:15;;;;;;;;;;;8.40;76.60;;;;;;4930246;28;120525;-87
2021/01/22 10:25:40;;;;;;;;;;;8.40;76.60;;;;;;4930720;28;117571;-87
2021/01/22 10:28:06;;;;;;;;;;;8.40;76.70;;;;;;4930778;28;117948;-87
2021/01/22 10:30:31;;;;;;;;;;;8.40;76.70;;;;;;4929942;28;121207;-87
2021/01/22 10:32:57;;;;;;;;;;;8.40;76.60;;;;;;4929941;28;119292;-87
2021/01/22 10:35:22;;;;;;;;;;;8.40;76.40;;;;;;4930883;28;117473;-87
2021/01/22 10:37:48;;;;;;;;;;;8.40;76.50;;;;;;4930929;28;118027;-87
2021/01/22 10:40:13;;;;;;;;;;;8.40;76.30;;;;;;4929707;28;120894;-87
2021/01/22 10:42:39;;;;;;;;;;;8.40;76.30;;;;;;4946258;28;117997;-87
2021/01/22 10:45:06;;;;;;;;;;;8.40;76.60;;;;;;4930557;28;117575;-87
2021/01/22 10:47:32;;;;;;;;;;;8.40;76.50;;;;;;4931004;28;116905;-87
2021/01/22 10:49:57;;;;;;;;;;;8.40;76.80;;;;;;4929576;28;121046;-87
2021/01/22 10:52:23;;;;;;;;;;;8.40;76.80;;;;;;4929549;28;119045;-87
2021/01/22 10:54:48;;;;;;;;;;;8.40;76.80;;;;;;4930423;28;117880;-87
2021/01/22 10:57:14;;;;;;;;;;;8.30;76.60;;;;;;4922688;28;117978;-87
2021/01/22 10:59:39;;;;;;;;;;;8.40;76.90;;;;;;4945384;28;121108;-87
2021/01/22 11:02:08;;;;;;;;;;;8.40;76.90;;;;;;4929505;28;120523;-87
2021/01/22 11:04:34;;;;;;;;;;;8.40;76.80;;;;;;4930258;28;117747;-87
2021/01/22 11:07:00;;;;;;;;;;;8.40;76.80;;;;;;4930619;28;117827;-87
2021/01/22 11:09:25;;;;;;;;;;;8.30;76.70;;;;;;4929221;28;119740;-87
2021/01/22 11:11:51;;;;;;;;;;;8.40;76.70;;;;;;4929400;28;118910;-87
2021/01/22 11:14:16;;;;;;;;;;;8.40;76.60;;;;;;4930038;28;117595;-87
2021/01/22 11:16:42;;;;;;;;;;;8.40;76.80;;;;;;4930327;28;117814;-87
2021/01/22 11:19:07;;;;;;;;;;;8.40;76.80;;;;;;4925855;28;119889;-87
2021/01/22 11:21:36;;;;;;;;;;;8.40;76.80;;;;;;4931840;28;120505;-89
2021/01/22 11:24:03;;;;;;;;;;;8.40;76.70;;;;;;4933073;28;117854;-89
2021/01/22 11:26:28;;;;;;;;;;;8.40;76.90;;;;;;4933863;28;117483;-89
2021/01/22 11:28:54;;;;;;;;;;;8.40;76.70;;;;;;4932236;28;120324;-89
2021/01/22 11:31:19;;;;;;;;;;;8.40;76.80;;;;;;4932370;28;119333;-89
2021/01/22 11:33:45;;;;;;;;;;;8.40;76.90;;;;;;4933085;28;117572;-89
2021/01/22 11:36:11;;;;;;;;;;;8.40;76.80;;;;;;4933621;28;117843;-89
2021/01/22 11:38:37;;;;;;;;;;;8.40;77.40;;;;;;4931842;28;121031;-89
2021/01/22 11:41:02;;;;;;;;;;;8.40;77.00;;;;;;4931963;28;119474;-89
2021/01/22 11:43:27;;;;;;;;;;;8.40;77.00;;;;;;4932677;28;117409;-89
2021/01/22 11:45:53;;;;;;;;;;;8.40;76.80;;;;;;4933185;28;117368;-89
2021/01/22 11:48:19;;;;;;;;;;;8.40;77.20;;;;;;4931864;28;121287;-89
2021/01/22 11:50:44;;;;;;;;;;;8.40;77.20;;;;;;4931981;28;120567;-89
2021/01/22 11:53:10;;;;;;;;;;;8.40;77.20;;;;;;4932572;28;117282;-89
2021/01/22 11:55:38;;;;;;;;;;;8.50;77.30;;;;;;4933145;28;117390;-89
2021/01/22 11:58:04;;;;;;;;;;;8.50;77.70;;;;;;4932034;28;120151;-89
2021/01/22 12:00:29;;;;;;;;;;;8.50;77.80;;;;;;4931756;28;121142;-89
2021/01/22 12:02:55;;;;;;;;;;;8.50;77.60;;;;;;4932675;28;117609;-89
2021/01/22 12:05:20;;;;;;;;;;;8.50;77.40;;;;;;4932861;28;117661;-89
2021/01/22 12:07:46;;;;;;;;;;;8.50;77.60;;;;;;4931735;28;120082;-89
2021/01/22 12:10:11;;;;;;;;;;;8.50;77.60;;;;;;4931470;28;119631;-89
2021/01/22 12:12:37;;;;;;;;;;;8.50;78.00;;;;;;4932480;28;117495;-89
2021/01/22 12:15:03;;;;;;;;;;;8.50;77.70;;;;;;4932882;28;117730;-89
2021/01/22 12:17:29;;;;;;;;;;;8.50;77.70;;;;;;4931621;28;121853;-89
2021/01/22 12:19:54;;;;;;;;;;;8.50;78.20;;;;;;4930934;28;119037;-89
2021/01/22 12:22:20;;;;;;;;;;;8.50;78.40;;;;;;4932307;28;117337;-89
2021/01/22 12:24:45;;;;;;;;;;;8.50;78.20;;;;;;4932920;28;117832;-89
2021/01/22 12:27:11;;;;;;;;;;;8.50;78.50;;;;;;4931613;28;121306;-89
2021/01/22 12:29:36;;;;;;;;;;;8.50;77.90;;;;;;4930949;28;119392;-89
2021/01/22 12:32:02;;;;;;;;;;;8.50;78.50;;;;;;4932014;28;117539;-89
2021/01/22 12:34:27;;;;;;;;;;;8.50;78.10;;;;;;4932905;28;117648;-89
2021/01/22 12:36:53;;;;;;;;;;;8.50;78.30;;;;;;4931313;28;120832;-89
2021/01/22 12:39:18;;;;;;;;;;;8.50;78.00;;;;;;4931044;28;119315;-89
2021/01/22 12:41:44;;;;;;;;;;;8.50;78.70;;;;;;4931995;28;117548;-89
2021/01/22 12:44:09;;;;;;;;;;;8.50;77.90;;;;;;4932641;28;117858;-89
2021/01/22 12:46:35;;;;;;;;;;;8.50;77.90;;;;;;4931546;28;119815;-89
2021/01/22 12:49:00;;;;;;;;;;;8.50;78.00;;;;;;4930968;28;120375;-89
2021/01/22 12:51:26;;;;;;;;;;;8.50;78.20;;;;;;4931887;28;117604;-89
2021/01/22 12:53:51;;;;;;;;;;;8.50;78.30;;;;;;4932123;28;117341;-89
2021/01/22 12:56:17;;;;;;;;;;;8.50;78.20;;;;;;4931182;28;120121;-88
2021/01/22 12:58:43;;;;;;;;;;;8.50;78.40;;;;;;4930939;28;118920;-89
2021/01/22 13:01:08;;;;;;;;;;;8.50;78.40;;;;;;4931625;28;117455;-89
2021/01/22 13:03:34;;;;;;;;;;;8.50;78.70;;;;;;4928111;28;117488;-89
2021/01/22 13:05:59;;;;;;;;;;;8.50;78.60;;;;;;4926930;28;120990;-89
2021/01/22 13:08:25;;;;;;;;;;;8.50;78.40;;;;;;4930700;28;120378;-89
2021/01/22 13:10:50;;;;;;;;;;;8.50;78.60;;;;;;4931673;28;117591;-89
2021/01/22 13:13:16;;;;;;;;;;;8.50;78.70;;;;;;4931969;28;117995;-89
2021/01/22 13:15:42;;;;;;;;;;;8.50;78.10;;;;;;4947079;28;120047;-87
2021/01/22 13:18:07;;;;;;;;;;;8.50;78.20;;;;;;4946438;28;120509;-88
2021/01/22 13:20:33;;;;;;;;;;;8.50;78.10;;;;;;4931341;28;117437;-88
2021/01/22 13:22:58;;;;;;;;;;;8.50;78.20;;;;;;4931945;28;118043;-88
2021/01/22 13:25:24;;;;;;;;;;;8.50;78.50;;;;;;4930499;28;120175;-85
2021/01/22 13:27:49;;;;;;;;;;;8.50;78.20;;;;;;4930611;28;117957;-83
2021/01/22 13:30:15;;;;;;;;;;;8.50;78.40;;;;;;4947617;28;117607;-85
2021/01/22 13:32:40;;;;;;;;;;;8.50;78.30;;;;;;4931676;28;117853;-85
2021/01/22 13:35:06;;;;;;;;;;;8.40;78.20;;;;;;4930618;28;119802;-85
2021/01/22 13:37:32;;;;;;;;;;;8.40;78.50;;;;;;4930443;28;120908;-85
2021/01/22 13:39:57;;;;;;;;;;;8.50;78.90;;;;;;4930619;28;117360;-85
2021/01/22 13:42:23;;;;;;;;;;;8.40;78.60;;;;;;4931396;28;117889;-83
2021/01/22 13:44:48;;;;;;;;;;;8.50;78.60;;;;;;4929497;28;121334;-84
2021/01/22 13:47:14;;;;;;;;;;;8.50;78.50;;;;;;4930164;28;120700;-84
2021/01/22 13:49:39;;;;;;;;;;;8.40;78.30;;;;;;4930664;28;117685;-84
2021/01/22 13:52:05;;;;;;;;;;;8.40;78.40;;;;;;4931433;28;117882;-84
2021/01/22 13:54:30;;;;;;;;;;;8.40;78.40;;;;;;4946902;28;117549;-84
2021/01/22 13:56:56;;;;;;;;;;;8.40;78.50;;;;;;4930450;28;119297;-84
2021/01/22 13:59:21;;;;;;;;;;;8.40;78.30;;;;;;4947128;28;117634;-84
2021/01/22 14:01:49;;;;;;;;;;;8.40;78.40;;;;;;4931137;28;117488;-84
2021/01/22 14:04:16;;;;;;;;;;;8.40;78.40;;;;;;4930228;28;120994;-84
2021/01/22 14:06:41;;;;;;;;;;;8.40;78.40;;;;;;4930062;28;119610;-84
2021/01/22 14:09:07;;;;;;;;;;;8.50;78.50;;;;;;4946659;28;117602;-83
2021/01/22 14:11:32;;;;;;;;;;;8.40;77.70;;;;;;4931192;28;117276;-83
2021/01/22 14:13:58;;;;;;;;;;;8.50;77.60;;;;;;4929895;28;121688;-83
2021/01/22 14:16:24;;;;;;;;;;;8.50;77.50;;;;;;4946026;28;120450;-83
2021/01/22 14:18:50;;;;;;;;;;;8.50;77.50;;;;;;4945860;28;117719;-88